sensor_id;sensor_type;location;lat;lon;timestamp;P1;durP1;ratioP1;P2;durP2;ratioP2
9541;SDS011;4809;48.224;8.572;2023-07-29T00:01:40;4.68;;;2.58;;
9541;SDS011;4809;48.224;8.572;2023-07-29T00:04:06;4.30;;;2.70;;
9541;SDS011;4809;48.224;8.572;2023-07-29T00:06:33;4.30;;;2.70;;
9541;SDS011;4809;48.224;8.572;2023-07-29T00:08:59;3.65;;;2.85;;
9541;SDS011;4809;48.224;8.572;2023-07-29T00:11:25;4.13;;;2.35;;
9541;SDS011;4809;48.224;8.572;2023-07-29T00:13:50;3.08;;;2.40;;
9541;SDS011;4809;48.224;8.572;2023-07-29T00:16:17;3.10;;;2.70;;
9541;SDS011;4809;48.224;8.572;2023-07-29T00:18:47;3.67;;;2.45;;
9541;SDS011;4809;48.224;8.572;2023-07-29T00:21:13;3.60;;;2.42;;
9541;SDS011;4809;48.224;8.572;2023-07-29T00:23:39;3.15;;;2.60;;
9541;SDS011;4809;48.224;8.572;2023-07-29T00:26:04;3.55;;;2.65;;
9541;SDS011;4809;48.224;8.572;2023-07-29T00:28:30;2.88;;;2.40;;
9541;SDS011;4809;48.224;8.572;2023-07-29T00:30:56;4.03;;;2.60;;
9541;SDS011;4809;48.224;8.572;2023-07-29T00:33:21;2.70;;;2.50;;
9541;SDS011;4809;48.224;8.572;2023-07-29T00:35:47;4.00;;;2.72;;
9541;SDS011;4809;48.224;8.572;2023-07-29T00:38:13;3.60;;;2.50;;
9541;SDS011;4809;48.224;8.572;2023-07-29T00:40:38;4.70;;;2.70;;
9541;SDS011;4809;48.224;8.572;2023-07-29T00:43:04;3.65;;;2.47;;
9541;SDS011;4809;48.224;8.572;2023-07-29T00:45:31;3.15;;;2.20;;
9541;SDS011;4809;48.224;8.572;2023-07-29T00:47:57;2.88;;;2.47;;
9541;SDS011;4809;48.224;8.572;2023-07-29T00:50:24;3.40;;;2.42;;
9541;SDS011;4809;48.224;8.572;2023-07-29T00:52:52;4.28;;;2.35;;
9541;SDS011;4809;48.224;8.572;2023-07-29T00:55:18;5.30;;;2.50;;
9541;SDS011;4809;48.224;8.572;2023-07-29T00:57:44;3.42;;;2.50;;
9541;SDS011;4809;48.224;8.572;2023-07-29T01:00:13;3.83;;;2.47;;
9541;SDS011;4809;48.224;8.572;2023-07-29T01:02:40;3.35;;;2.40;;
9541;SDS011;4809;48.224;8.572;2023-07-29T01:05:07;4.15;;;2.65;;
9541;SDS011;4809;48.224;8.572;2023-07-29T01:13:05;4.63;;;2.80;;
9541;SDS011;4809;48.224;8.572;2023-07-29T01:15:43;2.83;;;2.53;;
9541;SDS011;4809;48.224;8.572;2023-07-29T01:18:23;4.07;;;2.40;;
9541;SDS011;4809;48.224;8.572;2023-07-29T01:20:54;3.70;;;2.63;;
9541;SDS011;4809;48.224;8.572;2023-07-29T01:23:24;4.10;;;2.72;;
9541;SDS011;4809;48.224;8.572;2023-07-29T01:25:50;3.92;;;2.63;;
9541;SDS011;4809;48.224;8.572;2023-07-29T01:28:16;3.80;;;2.88;;
9541;SDS011;4809;48.224;8.572;2023-07-29T01:30:42;3.58;;;2.75;;
9541;SDS011;4809;48.224;8.572;2023-07-29T01:35:42;4.40;;;2.92;;
9541;SDS011;4809;48.224;8.572;2023-07-29T01:38:18;3.92;;;2.70;;
9541;SDS011;4809;48.224;8.572;2023-07-29T01:40:53;3.95;;;2.80;;
9541;SDS011;4809;48.224;8.572;2023-07-29T01:43:19;2.78;;;2.40;;
9541;SDS011;4809;48.224;8.572;2023-07-29T01:45:48;3.13;;;2.60;;
9541;SDS011;4809;48.224;8.572;2023-07-29T01:48:14;3.17;;;2.60;;
9541;SDS011;4809;48.224;8.572;2023-07-29T01:50:40;3.42;;;2.65;;
9541;SDS011;4809;48.224;8.572;2023-07-29T01:53:05;5.28;;;3.00;;
9541;SDS011;4809;48.224;8.572;2023-07-29T01:55:31;3.53;;;2.80;;
9541;SDS011;4809;48.224;8.572;2023-07-29T01:57:57;3.25;;;2.70;;
9541;SDS011;4809;48.224;8.572;2023-07-29T02:00:23;6.28;;;2.97;;
9541;SDS011;4809;48.224;8.572;2023-07-29T02:02:49;4.25;;;3.30;;
9541;SDS011;4809;48.224;8.572;2023-07-29T02:05:14;3.88;;;2.97;;
9541;SDS011;4809;48.224;8.572;2023-07-29T02:07:40;4.35;;;2.80;;
9541;SDS011;4809;48.224;8.572;2023-07-29T02:10:06;3.47;;;2.88;;
9541;SDS011;4809;48.224;8.572;2023-07-29T02:12:32;3.92;;;3.10;;
9541;SDS011;4809;48.224;8.572;2023-07-29T02:14:58;3.97;;;3.05;;
9541;SDS011;4809;48.224;8.572;2023-07-29T02:17:24;4.25;;;2.90;;
9541;SDS011;4809;48.224;8.572;2023-07-29T02:19:51;3.88;;;2.80;;
9541;SDS011;4809;48.224;8.572;2023-07-29T02:22:17;4.00;;;2.70;;
9541;SDS011;4809;48.224;8.572;2023-07-29T02:24:43;3.47;;;3.17;;
9541;SDS011;4809;48.224;8.572;2023-07-29T02:27:09;3.50;;;2.85;;
9541;SDS011;4809;48.224;8.572;2023-07-29T02:29:34;5.85;;;3.28;;
9541;SDS011;4809;48.224;8.572;2023-07-29T02:32:00;4.40;;;3.00;;
9541;SDS011;4809;48.224;8.572;2023-07-29T02:34:26;3.42;;;2.88;;
9541;SDS011;4809;48.224;8.572;2023-07-29T02:36:51;4.15;;;3.10;;
9541;SDS011;4809;48.224;8.572;2023-07-29T02:39:17;3.80;;;3.00;;
9541;SDS011;4809;48.224;8.572;2023-07-29T02:41:43;4.25;;;3.13;;
9541;SDS011;4809;48.224;8.572;2023-07-29T02:44:08;4.35;;;3.10;;
9541;SDS011;4809;48.224;8.572;2023-07-29T02:46:34;3.83;;;3.03;;
9541;SDS011;4809;48.224;8.572;2023-07-29T02:49:01;4.88;;;3.40;;
9541;SDS011;4809;48.224;8.572;2023-07-29T02:51:28;4.28;;;3.00;;
9541;SDS011;4809;48.224;8.572;2023-07-29T02:53:53;3.80;;;3.28;;
9541;SDS011;4809;48.224;8.572;2023-07-29T02:56:19;4.70;;;3.30;;
9541;SDS011;4809;48.224;8.572;2023-07-29T02:58:44;3.50;;;3.03;;
9541;SDS011;4809;48.224;8.572;2023-07-29T03:01:10;5.00;;;3.55;;
9541;SDS011;4809;48.224;8.572;2023-07-29T03:03:36;5.22;;;3.50;;
9541;SDS011;4809;48.224;8.572;2023-07-29T03:06:02;4.03;;;3.10;;
9541;SDS011;4809;48.224;8.572;2023-07-29T03:08:30;4.97;;;3.40;;
9541;SDS011;4809;48.224;8.572;2023-07-29T03:10:56;5.47;;;3.38;;
9541;SDS011;4809;48.224;8.572;2023-07-29T03:13:22;4.60;;;3.38;;
9541;SDS011;4809;48.224;8.572;2023-07-29T03:15:47;5.50;;;3.50;;
9541;SDS011;4809;48.224;8.572;2023-07-29T03:18:13;5.15;;;3.28;;
9541;SDS011;4809;48.224;8.572;2023-07-29T03:20:39;4.47;;;3.20;;
9541;SDS011;4809;48.224;8.572;2023-07-29T03:23:05;3.97;;;3.25;;
9541;SDS011;4809;48.224;8.572;2023-07-29T03:25:31;4.55;;;3.22;;
9541;SDS011;4809;48.224;8.572;2023-07-29T03:27:57;3.17;;;2.90;;
9541;SDS011;4809;48.224;8.572;2023-07-29T03:30:23;3.97;;;3.00;;
9541;SDS011;4809;48.224;8.572;2023-07-29T03:32:49;3.33;;;3.03;;
9541;SDS011;4809;48.224;8.572;2023-07-29T03:35:15;5.18;;;2.83;;
9541;SDS011;4809;48.224;8.572;2023-07-29T03:37:41;4.13;;;2.90;;
9541;SDS011;4809;48.224;8.572;2023-07-29T03:40:07;3.92;;;2.60;;
9541;SDS011;4809;48.224;8.572;2023-07-29T03:42:34;3.78;;;3.05;;
9541;SDS011;4809;48.224;8.572;2023-07-29T03:45:00;2.95;;;2.72;;
9541;SDS011;4809;48.224;8.572;2023-07-29T03:47:26;4.72;;;2.85;;
9541;SDS011;4809;48.224;8.572;2023-07-29T03:49:52;3.10;;;2.42;;
9541;SDS011;4809;48.224;8.572;2023-07-29T03:52:18;3.25;;;2.95;;
9541;SDS011;4809;48.224;8.572;2023-07-29T03:54:43;4.28;;;3.03;;
9541;SDS011;4809;48.224;8.572;2023-07-29T03:57:09;5.10;;;2.70;;
9541;SDS011;4809;48.224;8.572;2023-07-29T03:59:34;4.55;;;2.90;;
9541;SDS011;4809;48.224;8.572;2023-07-29T04:02:00;4.15;;;3.17;;
9541;SDS011;4809;48.224;8.572;2023-07-29T04:04:25;3.25;;;2.90;;
9541;SDS011;4809;48.224;8.572;2023-07-29T04:06:51;3.55;;;2.67;;
9541;SDS011;4809;48.224;8.572;2023-07-29T04:09:17;3.30;;;3.00;;
9541;SDS011;4809;48.224;8.572;2023-07-29T04:11:42;4.95;;;3.13;;
9541;SDS011;4809;48.224;8.572;2023-07-29T04:14:08;3.10;;;2.80;;
9541;SDS011;4809;48.224;8.572;2023-07-29T04:16:34;4.25;;;2.80;;
9541;SDS011;4809;48.224;8.572;2023-07-29T04:18:59;3.28;;;2.65;;
9541;SDS011;4809;48.224;8.572;2023-07-29T04:21:25;5.40;;;2.92;;
9541;SDS011;4809;48.224;8.572;2023-07-29T04:23:51;3.40;;;2.78;;
9541;SDS011;4809;48.224;8.572;2023-07-29T04:26:16;3.30;;;2.72;;
9541;SDS011;4809;48.224;8.572;2023-07-29T04:28:42;3.03;;;2.80;;
9541;SDS011;4809;48.224;8.572;2023-07-29T04:31:08;3.50;;;2.80;;
9541;SDS011;4809;48.224;8.572;2023-07-29T04:33:33;2.95;;;2.65;;
9541;SDS011;4809;48.224;8.572;2023-07-29T04:35:59;3.20;;;2.33;;
9541;SDS011;4809;48.224;8.572;2023-07-29T04:38:29;3.10;;;2.72;;
9541;SDS011;4809;48.224;8.572;2023-07-29T04:40:57;2.67;;;2.47;;
9541;SDS011;4809;48.224;8.572;2023-07-29T04:43:26;3.35;;;2.60;;
9541;SDS011;4809;48.224;8.572;2023-07-29T04:45:56;3.92;;;2.67;;
9541;SDS011;4809;48.224;8.572;2023-07-29T04:48:22;3.00;;;2.50;;
9541;SDS011;4809;48.224;8.572;2023-07-29T04:50:48;3.30;;;2.72;;
9541;SDS011;4809;48.224;8.572;2023-07-29T04:53:13;3.42;;;2.55;;
9541;SDS011;4809;48.224;8.572;2023-07-29T04:55:41;2.70;;;2.50;;
9541;SDS011;4809;48.224;8.572;2023-07-29T04:58:07;2.80;;;2.50;;
9541;SDS011;4809;48.224;8.572;2023-07-29T05:00:33;4.38;;;2.90;;
9541;SDS011;4809;48.224;8.572;2023-07-29T05:02:59;3.88;;;2.85;;
9541;SDS011;4809;48.224;8.572;2023-07-29T05:05:26;2.75;;;2.42;;
9541;SDS011;4809;48.224;8.572;2023-07-29T05:07:52;3.65;;;2.80;;
9541;SDS011;4809;48.224;8.572;2023-07-29T05:10:17;3.40;;;2.78;;
9541;SDS011;4809;48.224;8.572;2023-07-29T05:12:43;3.40;;;2.75;;
9541;SDS011;4809;48.224;8.572;2023-07-29T05:15:09;3.53;;;2.75;;
9541;SDS011;4809;48.224;8.572;2023-07-29T05:17:35;3.05;;;2.70;;
9541;SDS011;4809;48.224;8.572;2023-07-29T05:20:00;3.50;;;2.70;;
9541;SDS011;4809;48.224;8.572;2023-07-29T05:22:26;3.15;;;2.85;;
9541;SDS011;4809;48.224;8.572;2023-07-29T05:24:51;4.38;;;2.90;;
9541;SDS011;4809;48.224;8.572;2023-07-29T05:27:17;4.28;;;2.85;;
9541;SDS011;4809;48.224;8.572;2023-07-29T05:29:43;4.53;;;3.20;;
9541;SDS011;4809;48.224;8.572;2023-07-29T05:32:08;3.10;;;2.60;;
9541;SDS011;4809;48.224;8.572;2023-07-29T05:34:34;3.35;;;2.97;;
9541;SDS011;4809;48.224;8.572;2023-07-29T05:37:00;3.53;;;2.80;;
9541;SDS011;4809;48.224;8.572;2023-07-29T05:39:25;3.30;;;2.95;;
9541;SDS011;4809;48.224;8.572;2023-07-29T05:41:51;3.67;;;2.80;;
9541;SDS011;4809;48.224;8.572;2023-07-29T05:44:17;3.65;;;3.05;;
9541;SDS011;4809;48.224;8.572;2023-07-29T05:46:42;3.63;;;2.95;;
9541;SDS011;4809;48.224;8.572;2023-07-29T05:49:08;3.25;;;2.88;;
9541;SDS011;4809;48.224;8.572;2023-07-29T05:51:33;4.55;;;3.15;;
9541;SDS011;4809;48.224;8.572;2023-07-29T05:53:59;3.58;;;3.03;;
9541;SDS011;4809;48.224;8.572;2023-07-29T05:56:25;3.30;;;3.00;;
9541;SDS011;4809;48.224;8.572;2023-07-29T05:58:50;3.40;;;3.10;;
9541;SDS011;4809;48.224;8.572;2023-07-29T06:01:16;3.25;;;2.95;;
9541;SDS011;4809;48.224;8.572;2023-07-29T06:03:46;4.32;;;3.05;;
9541;SDS011;4809;48.224;8.572;2023-07-29T06:06:12;4.18;;;2.92;;
9541;SDS011;4809;48.224;8.572;2023-07-29T06:08:37;3.70;;;2.67;;
9541;SDS011;4809;48.224;8.572;2023-07-29T06:11:03;3.67;;;3.00;;
9541;SDS011;4809;48.224;8.572;2023-07-29T06:13:31;5.15;;;3.10;;
9541;SDS011;4809;48.224;8.572;2023-07-29T06:15:57;4.72;;;3.28;;
9541;SDS011;4809;48.224;8.572;2023-07-29T06:18:23;4.68;;;3.20;;
9541;SDS011;4809;48.224;8.572;2023-07-29T06:20:49;4.80;;;3.38;;
9541;SDS011;4809;48.224;8.572;2023-07-29T06:23:15;4.07;;;3.05;;
9541;SDS011;4809;48.224;8.572;2023-07-29T06:25:41;3.63;;;3.13;;
9541;SDS011;4809;48.224;8.572;2023-07-29T06:28:06;3.83;;;3.20;;
9541;SDS011;4809;48.224;8.572;2023-07-29T06:30:33;4.57;;;3.53;;
9541;SDS011;4809;48.224;8.572;2023-07-29T06:32:59;4.95;;;3.38;;
9541;SDS011;4809;48.224;8.572;2023-07-29T06:35:24;5.22;;;3.00;;
9541;SDS011;4809;48.224;8.572;2023-07-29T06:37:50;4.63;;;3.22;;
9541;SDS011;4809;48.224;8.572;2023-07-29T06:40:16;5.72;;;3.30;;
9541;SDS011;4809;48.224;8.572;2023-07-29T06:42:41;7.28;;;3.38;;
9541;SDS011;4809;48.224;8.572;2023-07-29T06:45:07;5.15;;;3.30;;
9541;SDS011;4809;48.224;8.572;2023-07-29T06:47:33;5.80;;;3.25;;
9541;SDS011;4809;48.224;8.572;2023-07-29T06:49:59;4.78;;;3.28;;
9541;SDS011;4809;48.224;8.572;2023-07-29T06:52:24;5.05;;;2.97;;
9541;SDS011;4809;48.224;8.572;2023-07-29T06:54:50;4.50;;;3.30;;
9541;SDS011;4809;48.224;8.572;2023-07-29T06:57:16;3.70;;;3.25;;
9541;SDS011;4809;48.224;8.572;2023-07-29T06:59:42;4.30;;;3.30;;
9541;SDS011;4809;48.224;8.572;2023-07-29T07:02:07;3.92;;;3.20;;
9541;SDS011;4809;48.224;8.572;2023-07-29T07:04:33;4.57;;;3.20;;
9541;SDS011;4809;48.224;8.572;2023-07-29T07:06:59;3.30;;;3.00;;
9541;SDS011;4809;48.224;8.572;2023-07-29T07:09:24;3.83;;;3.42;;
9541;SDS011;4809;48.224;8.572;2023-07-29T07:11:50;8.40;;;3.50;;
9541;SDS011;4809;48.224;8.572;2023-07-29T07:14:16;5.03;;;3.40;;
9541;SDS011;4809;48.224;8.572;2023-07-29T07:16:41;5.30;;;3.60;;
9541;SDS011;4809;48.224;8.572;2023-07-29T07:19:07;7.03;;;3.50;;
9541;SDS011;4809;48.224;8.572;2023-07-29T07:21:32;5.22;;;3.03;;
9541;SDS011;4809;48.224;8.572;2023-07-29T07:23:58;3.90;;;2.90;;
9541;SDS011;4809;48.224;8.572;2023-07-29T07:26:24;4.68;;;3.30;;
9541;SDS011;4809;48.224;8.572;2023-07-29T07:28:49;3.70;;;3.13;;
9541;SDS011;4809;48.224;8.572;2023-07-29T07:31:16;3.75;;;2.72;;
9541;SDS011;4809;48.224;8.572;2023-07-29T07:33:42;3.42;;;2.72;;
9541;SDS011;4809;48.224;8.572;2023-07-29T07:36:08;4.90;;;3.00;;
9541;SDS011;4809;48.224;8.572;2023-07-29T07:38:34;3.40;;;2.78;;
9541;SDS011;4809;48.224;8.572;2023-07-29T07:40:59;4.47;;;2.65;;
9541;SDS011;4809;48.224;8.572;2023-07-29T07:43:26;3.55;;;2.70;;
9541;SDS011;4809;48.224;8.572;2023-07-29T07:45:57;4.55;;;2.85;;
9541;SDS011;4809;48.224;8.572;2023-07-29T07:48:24;3.50;;;3.05;;
9541;SDS011;4809;48.224;8.572;2023-07-29T07:50:50;2.90;;;2.60;;
9541;SDS011;4809;48.224;8.572;2023-07-29T07:53:16;3.80;;;2.83;;
9541;SDS011;4809;48.224;8.572;2023-07-29T07:55:42;3.63;;;2.45;;
9541;SDS011;4809;48.224;8.572;2023-07-29T07:58:07;3.22;;;2.35;;
9541;SDS011;4809;48.224;8.572;2023-07-29T08:00:33;2.97;;;2.40;;
9541;SDS011;4809;48.224;8.572;2023-07-29T08:02:58;3.72;;;2.08;;
9541;SDS011;4809;48.224;8.572;2023-07-29T08:05:24;2.13;;;1.92;;
9541;SDS011;4809;48.224;8.572;2023-07-29T08:07:49;2.25;;;2.05;;
9541;SDS011;4809;48.224;8.572;2023-07-29T08:10:15;3.78;;;2.30;;
9541;SDS011;4809;48.224;8.572;2023-07-29T08:12:41;3.28;;;2.20;;
9541;SDS011;4809;48.224;8.572;2023-07-29T08:15:06;2.30;;;2.10;;
9541;SDS011;4809;48.224;8.572;2023-07-29T08:17:32;2.30;;;2.10;;
9541;SDS011;4809;48.224;8.572;2023-07-29T08:19:58;2.30;;;2.10;;
9541;SDS011;4809;48.224;8.572;2023-07-29T08:22:23;2.50;;;1.90;;
9541;SDS011;4809;48.224;8.572;2023-07-29T08:24:49;2.50;;;2.30;;
9541;SDS011;4809;48.224;8.572;2023-07-29T08:27:15;2.67;;;2.20;;
9541;SDS011;4809;48.224;8.572;2023-07-29T08:29:40;2.30;;;2.10;;
9541;SDS011;4809;48.224;8.572;2023-07-29T08:32:06;3.70;;;3.33;;
9541;SDS011;4809;48.224;8.572;2023-07-29T08:34:32;2.85;;;2.42;;
9541;SDS011;4809;48.224;8.572;2023-07-29T08:36:58;4.35;;;2.47;;
9541;SDS011;4809;48.224;8.572;2023-07-29T08:39:25;3.55;;;2.67;;
9541;SDS011;4809;48.224;8.572;2023-07-29T08:44:21;3.38;;;2.30;;
9541;SDS011;4809;48.224;8.572;2023-07-29T08:46:49;3.15;;;2.50;;
9541;SDS011;4809;48.224;8.572;2023-07-29T08:49:15;2.92;;;2.33;;
9541;SDS011;4809;48.224;8.572;2023-07-29T08:51:46;2.85;;;2.65;;
9541;SDS011;4809;48.224;8.572;2023-07-29T08:54:13;2.83;;;2.50;;
9541;SDS011;4809;48.224;8.572;2023-07-29T08:56:40;4.53;;;2.50;;
9541;SDS011;4809;48.224;8.572;2023-07-29T08:59:07;3.58;;;2.55;;
9541;SDS011;4809;48.224;8.572;2023-07-29T09:01:33;2.50;;;2.30;;
9541;SDS011;4809;48.224;8.572;2023-07-29T09:03:59;3.95;;;3.28;;
9541;SDS011;4809;48.224;8.572;2023-07-29T09:06:25;4.43;;;4.03;;
9541;SDS011;4809;48.224;8.572;2023-07-29T09:08:53;2.97;;;2.67;;
9541;SDS011;4809;48.224;8.572;2023-07-29T09:11:21;3.53;;;2.85;;
9541;SDS011;4809;48.224;8.572;2023-07-29T09:13:47;2.65;;;2.45;;
9541;SDS011;4809;48.224;8.572;2023-07-29T09:16:13;3.10;;;2.70;;
9541;SDS011;4809;48.224;8.572;2023-07-29T09:18:39;3.88;;;2.58;;
9541;SDS011;4809;48.224;8.572;2023-07-29T09:21:05;3.10;;;2.60;;
9541;SDS011;4809;48.224;8.572;2023-07-29T09:23:41;5.07;;;3.00;;
9541;SDS011;4809;48.224;8.572;2023-07-29T09:26:07;4.75;;;3.85;;
9541;SDS011;4809;48.224;8.572;2023-07-29T09:28:34;4.43;;;2.80;;
9541;SDS011;4809;48.224;8.572;2023-07-29T09:31:00;4.32;;;3.92;;
9541;SDS011;4809;48.224;8.572;2023-07-29T09:33:27;4.65;;;3.42;;
9541;SDS011;4809;48.224;8.572;2023-07-29T09:35:53;3.40;;;3.10;;
9541;SDS011;4809;48.224;8.572;2023-07-29T09:38:25;3.33;;;3.03;;
9541;SDS011;4809;48.224;8.572;2023-07-29T09:40:54;4.07;;;3.47;;
9541;SDS011;4809;48.224;8.572;2023-07-29T09:43:26;4.28;;;3.50;;
9541;SDS011;4809;48.224;8.572;2023-07-29T09:45:54;3.33;;;3.13;;
9541;SDS011;4809;48.224;8.572;2023-07-29T09:48:24;4.53;;;4.00;;
9541;SDS011;4809;48.224;8.572;2023-07-29T09:50:50;3.17;;;2.88;;
9541;SDS011;4809;48.224;8.572;2023-07-29T09:53:15;3.97;;;3.13;;
9541;SDS011;4809;48.224;8.572;2023-07-29T09:55:45;3.13;;;2.83;;
9541;SDS011;4809;48.224;8.572;2023-07-29T09:58:13;3.85;;;3.10;;
9541;SDS011;4809;48.224;8.572;2023-07-29T10:00:39;4.13;;;3.17;;
9541;SDS011;4809;48.224;8.572;2023-07-29T10:03:06;3.35;;;3.05;;
9541;SDS011;4809;48.224;8.572;2023-07-29T10:05:32;2.92;;;2.72;;
9541;SDS011;4809;48.224;8.572;2023-07-29T10:08:00;3.65;;;2.90;;
9541;SDS011;4809;48.224;8.572;2023-07-29T10:10:27;4.15;;;3.00;;
9541;SDS011;4809;48.224;8.572;2023-07-29T10:12:53;4.43;;;3.20;;
9541;SDS011;4809;48.224;8.572;2023-07-29T10:15:19;3.97;;;3.15;;
9541;SDS011;4809;48.224;8.572;2023-07-29T10:17:46;3.35;;;3.05;;
9541;SDS011;4809;48.224;8.572;2023-07-29T10:20:12;3.70;;;3.00;;
9541;SDS011;4809;48.224;8.572;2023-07-29T10:22:38;3.30;;;3.00;;
9541;SDS011;4809;48.224;8.572;2023-07-29T10:25:16;3.08;;;2.85;;
9541;SDS011;4809;48.224;8.572;2023-07-29T10:27:43;3.30;;;3.00;;
9541;SDS011;4809;48.224;8.572;2023-07-29T10:30:23;3.30;;;3.00;;
9541;SDS011;4809;48.224;8.572;2023-07-29T10:32:53;3.25;;;2.88;;
9541;SDS011;4809;48.224;8.572;2023-07-29T10:35:22;3.45;;;3.15;;
9541;SDS011;4809;48.224;8.572;2023-07-29T10:37:47;3.08;;;2.78;;
9541;SDS011;4809;48.224;8.572;2023-07-29T10:40:16;3.05;;;2.85;;
9541;SDS011;4809;48.224;8.572;2023-07-29T10:42:58;6.07;;;3.17;;
9541;SDS011;4809;48.224;8.572;2023-07-29T10:45:35;2.90;;;2.70;;
9541;SDS011;4809;48.224;8.572;2023-07-29T10:51:21;2.97;;;2.72;;
9541;SDS011;4809;48.224;8.572;2023-07-29T10:54:01;2.58;;;2.38;;
9541;SDS011;4809;48.224;8.572;2023-07-29T11:01:41;2.78;;;2.35;;
9541;SDS011;4809;48.224;8.572;2023-07-29T11:10:14;2.70;;;2.33;;
9541;SDS011;4809;48.224;8.572;2023-07-29T11:15:14;2.70;;;2.50;;
9541;SDS011;4809;48.224;8.572;2023-07-29T11:17:41;2.65;;;2.38;;
9541;SDS011;4809;48.224;8.572;2023-07-29T11:20:08;2.70;;;2.50;;
9541;SDS011;4809;48.224;8.572;2023-07-29T11:22:35;2.60;;;2.40;;
9541;SDS011;4809;48.224;8.572;2023-07-29T11:25:02;3.38;;;2.50;;
9541;SDS011;4809;48.224;8.572;2023-07-29T11:27:28;3.08;;;2.50;;
9541;SDS011;4809;48.224;8.572;2023-07-29T11:29:57;2.60;;;2.40;;
9541;SDS011;4809;48.224;8.572;2023-07-29T11:32:27;2.60;;;2.35;;
9541;SDS011;4809;48.224;8.572;2023-07-29T11:34:53;2.22;;;2.13;;
9541;SDS011;4809;48.224;8.572;2023-07-29T11:37:18;2.50;;;2.30;;
9541;SDS011;4809;48.224;8.572;2023-07-29T11:39:45;2.85;;;2.47;;
9541;SDS011;4809;48.224;8.572;2023-07-29T11:42:11;2.40;;;2.20;;
9541;SDS011;4809;48.224;8.572;2023-07-29T11:44:38;2.88;;;2.50;;
9541;SDS011;4809;48.224;8.572;2023-07-29T11:47:07;2.10;;;2.00;;
9541;SDS011;4809;48.224;8.572;2023-07-29T11:49:33;2.50;;;2.30;;
9541;SDS011;4809;48.224;8.572;2023-07-29T11:52:00;2.60;;;2.40;;
9541;SDS011;4809;48.224;8.572;2023-07-29T11:54:27;2.50;;;2.30;;
9541;SDS011;4809;48.224;8.572;2023-07-29T11:56:53;2.20;;;2.10;;
9541;SDS011;4809;48.224;8.572;2023-07-29T11:59:19;2.38;;;2.17;;
9541;SDS011;4809;48.224;8.572;2023-07-29T12:01:45;2.28;;;2.17;;
9541;SDS011;4809;48.224;8.572;2023-07-29T12:04:11;2.60;;;2.40;;
9541;SDS011;4809;48.224;8.572;2023-07-29T12:06:37;2.47;;;2.28;;
9541;SDS011;4809;48.224;8.572;2023-07-29T12:09:04;2.20;;;2.10;;
9541;SDS011;4809;48.224;8.572;2023-07-29T12:11:30;2.30;;;2.10;;
9541;SDS011;4809;48.224;8.572;2023-07-29T12:13:55;2.90;;;2.35;;
9541;SDS011;4809;48.224;8.572;2023-07-29T12:16:21;2.60;;;2.28;;
9541;SDS011;4809;48.224;8.572;2023-07-29T12:18:47;2.95;;;2.40;;
9541;SDS011;4809;48.224;8.572;2023-07-29T12:21:14;2.22;;;2.13;;
9541;SDS011;4809;48.224;8.572;2023-07-29T12:23:40;2.60;;;2.40;;
9541;SDS011;4809;48.224;8.572;2023-07-29T12:26:06;2.53;;;2.33;;
9541;SDS011;4809;48.224;8.572;2023-07-29T12:28:32;2.70;;;2.38;;
9541;SDS011;4809;48.224;8.572;2023-07-29T12:30:57;2.50;;;2.30;;
9541;SDS011;4809;48.224;8.572;2023-07-29T12:33:30;2.55;;;2.35;;
9541;SDS011;4809;48.224;8.572;2023-07-29T12:35:56;2.70;;;2.50;;
9541;SDS011;4809;48.224;8.572;2023-07-29T12:38:22;2.55;;;2.35;;
9541;SDS011;4809;48.224;8.572;2023-07-29T12:40:47;2.83;;;2.50;;
9541;SDS011;4809;48.224;8.572;2023-07-29T12:43:13;2.42;;;2.22;;
9541;SDS011;4809;48.224;8.572;2023-07-29T12:45:39;2.88;;;2.58;;
9541;SDS011;4809;48.224;8.572;2023-07-29T12:48:06;2.70;;;2.50;;
9541;SDS011;4809;48.224;8.572;2023-07-29T12:50:32;2.40;;;2.20;;
9541;SDS011;4809;48.224;8.572;2023-07-29T12:52:58;2.40;;;2.20;;
9541;SDS011;4809;48.224;8.572;2023-07-29T12:55:23;2.58;;;2.38;;
9541;SDS011;4809;48.224;8.572;2023-07-29T12:57:49;2.60;;;2.40;;
9541;SDS011;4809;48.224;8.572;2023-07-29T13:00:15;2.63;;;2.30;;
9541;SDS011;4809;48.224;8.572;2023-07-29T13:02:41;2.50;;;2.30;;
9541;SDS011;4809;48.224;8.572;2023-07-29T13:05:09;2.40;;;2.13;;
9541;SDS011;4809;48.224;8.572;2023-07-29T13:07:41;2.42;;;2.22;;
9541;SDS011;4809;48.224;8.572;2023-07-29T13:10:08;2.47;;;2.28;;
9541;SDS011;4809;48.224;8.572;2023-07-29T13:12:35;2.70;;;2.50;;
9541;SDS011;4809;48.224;8.572;2023-07-29T13:15:01;2.60;;;2.40;;
9541;SDS011;4809;48.224;8.572;2023-07-29T13:17:27;2.92;;;2.42;;
9541;SDS011;4809;48.224;8.572;2023-07-29T13:19:52;3.28;;;2.20;;
9541;SDS011;4809;48.224;8.572;2023-07-29T13:22:19;2.50;;;2.30;;
9541;SDS011;4809;48.224;8.572;2023-07-29T13:24:45;2.70;;;2.50;;
9541;SDS011;4809;48.224;8.572;2023-07-29T13:27:11;2.58;;;2.38;;
9541;SDS011;4809;48.224;8.572;2023-07-29T13:29:37;2.65;;;2.35;;
9541;SDS011;4809;48.224;8.572;2023-07-29T13:32:04;2.75;;;2.53;;
9541;SDS011;4809;48.224;8.572;2023-07-29T13:34:30;3.60;;;2.47;;
9541;SDS011;4809;48.224;8.572;2023-07-29T13:36:55;2.70;;;2.50;;
9541;SDS011;4809;48.224;8.572;2023-07-29T13:39:21;2.80;;;2.55;;
9541;SDS011;4809;48.224;8.572;2023-07-29T13:41:47;2.55;;;2.35;;
9541;SDS011;4809;48.224;8.572;2023-07-29T13:44:12;2.60;;;2.40;;
9541;SDS011;4809;48.224;8.572;2023-07-29T13:46:38;2.60;;;2.33;;
9541;SDS011;4809;48.224;8.572;2023-07-29T13:49:03;2.47;;;2.28;;
9541;SDS011;4809;48.224;8.572;2023-07-29T13:51:29;2.50;;;2.30;;
9541;SDS011;4809;48.224;8.572;2023-07-29T13:53:55;4.88;;;2.67;;
9541;SDS011;4809;48.224;8.572;2023-07-29T13:56:21;3.35;;;2.58;;
9541;SDS011;4809;48.224;8.572;2023-07-29T13:58:47;2.70;;;2.50;;
9541;SDS011;4809;48.224;8.572;2023-07-29T14:01:13;3.05;;;2.58;;
9541;SDS011;4809;48.224;8.572;2023-07-29T14:03:38;3.17;;;2.88;;
9541;SDS011;4809;48.224;8.572;2023-07-29T14:06:04;2.65;;;2.45;;
9541;SDS011;4809;48.224;8.572;2023-07-29T14:08:30;2.53;;;2.33;;
9541;SDS011;4809;48.224;8.572;2023-07-29T14:10:55;2.85;;;2.60;;
9541;SDS011;4809;48.224;8.572;2023-07-29T14:13:21;3.25;;;2.83;;
9541;SDS011;4809;48.224;8.572;2023-07-29T14:15:46;4.20;;;3.20;;
9541;SDS011;4809;48.224;8.572;2023-07-29T14:18:12;16.50;;;4.07;;
9541;SDS011;4809;48.224;8.572;2023-07-29T14:20:38;7.90;;;3.20;;
9541;SDS011;4809;48.224;8.572;2023-07-29T14:23:04;8.35;;;3.40;;
9541;SDS011;4809;48.224;8.572;2023-07-29T14:25:30;4.40;;;2.95;;
9541;SDS011;4809;48.224;8.572;2023-07-29T14:27:55;5.13;;;3.13;;
9541;SDS011;4809;48.224;8.572;2023-07-29T14:30:21;5.63;;;2.70;;
9541;SDS011;4809;48.224;8.572;2023-07-29T14:32:46;4.18;;;2.72;;
9541;SDS011;4809;48.224;8.572;2023-07-29T14:35:14;4.53;;;2.85;;
9541;SDS011;4809;48.224;8.572;2023-07-29T14:37:43;5.22;;;3.00;;
9541;SDS011;4809;48.224;8.572;2023-07-29T14:40:09;3.40;;;2.90;;
9541;SDS011;4809;48.224;8.572;2023-07-29T14:42:34;3.63;;;3.00;;
9541;SDS011;4809;48.224;8.572;2023-07-29T14:45:00;3.58;;;3.28;;
9541;SDS011;4809;48.224;8.572;2023-07-29T14:47:26;4.40;;;3.58;;
9541;SDS011;4809;48.224;8.572;2023-07-29T14:49:51;4.07;;;3.67;;
9541;SDS011;4809;48.224;8.572;2023-07-29T14:52:17;4.55;;;3.30;;
9541;SDS011;4809;48.224;8.572;2023-07-29T14:54:43;3.78;;;3.47;;
9541;SDS011;4809;48.224;8.572;2023-07-29T14:57:09;3.20;;;2.90;;
9541;SDS011;4809;48.224;8.572;2023-07-29T14:59:35;2.72;;;2.53;;
9541;SDS011;4809;48.224;8.572;2023-07-29T15:02:01;3.08;;;2.78;;
9541;SDS011;4809;48.224;8.572;2023-07-29T15:04:26;2.80;;;2.60;;
9541;SDS011;4809;48.224;8.572;2023-07-29T15:06:52;3.30;;;3.00;;
9541;SDS011;4809;48.224;8.572;2023-07-29T15:09:17;3.20;;;2.90;;
9541;SDS011;4809;48.224;8.572;2023-07-29T15:11:43;4.95;;;2.85;;
9541;SDS011;4809;48.224;8.572;2023-07-29T15:14:09;2.92;;;2.60;;
9541;SDS011;4809;48.224;8.572;2023-07-29T15:16:34;3.17;;;2.50;;
9541;SDS011;4809;48.224;8.572;2023-07-29T15:19:01;5.15;;;2.47;;
9541;SDS011;4809;48.224;8.572;2023-07-29T15:21:29;2.80;;;2.50;;
9541;SDS011;4809;48.224;8.572;2023-07-29T15:23:54;2.95;;;2.67;;
9541;SDS011;4809;48.224;8.572;2023-07-29T15:26:20;3.33;;;2.45;;
9541;SDS011;4809;48.224;8.572;2023-07-29T15:28:46;2.95;;;2.65;;
9541;SDS011;4809;48.224;8.572;2023-07-29T15:31:12;3.42;;;2.80;;
9541;SDS011;4809;48.224;8.572;2023-07-29T15:33:38;3.60;;;2.60;;
9541;SDS011;4809;48.224;8.572;2023-07-29T15:36:03;3.15;;;2.85;;
9541;SDS011;4809;48.224;8.572;2023-07-29T15:38:29;3.10;;;2.80;;